Time;durP1;ratioP1;P1;durP2;ratioP2;P2;SDS_P1;SDS_P2;PMS_P1;PMS_P2;Temp;Humidity;BMP_temperature;BMP_pressure;BME280_temperature;BME280_humidity;BME280_pressure;Samples;Min_cycle;Max_cycle;Signal;HPM_P1;HPM_P2
2022/04/20 00:00:47;;;;;;;28.37;13.83;;;;;;;;;;4997188;28;20236;-83
2022/04/20 00:03:13;;;;;;;29.03;14.00;;;3.00;99.90;;;;;;4995538;28;20248;-83
2022/04/20 00:05:39;;;;;;;26.03;13.43;;;3.20;99.90;;;;;;4997005;28;20258;-83
2022/04/20 00:08:05;;;;;;;22.10;11.97;;;3.10;99.90;;;;;;4995835;28;20546;-83
2022/04/20 00:10:31;;;;;;;23.13;11.70;;;2.90;99.90;;;;;;4995550;28;20189;-83
2022/04/20 00:12:57;;;;;;;23.07;10.67;;;3.20;99.90;;;;;;4997047;28;20228;-83
2022/04/20 00:15:23;;;;;;;19.97;10.20;;;4.50;99.90;;;;;;4996871;28;20180;-83
2022/04/20 00:17:49;;;;;;;21.00;10.67;;;3.30;99.90;;;;;;4996750;28;20206;-83
2022/04/20 00:20:15;;;;;;;17.67;9.77;;;4.70;99.90;;;;;;4996803;28;20183;-83
2022/04/20 00:22:41;;;;;;;18.80;9.77;;;3.30;99.90;;;;;;4996490;28;20644;-83
2022/04/20 00:25:07;;;;;;;18.10;8.97;;;3.40;99.90;;;;;;4996885;28;20233;-83
2022/04/20 00:27:37;;;;;;;17.90;8.00;;;3.50;99.90;;;;;;4995361;28;20328;-83
2022/04/20 00:30:08;;;;;;;16.87;9.03;;;3.50;99.90;;;;;;4997161;28;20182;-83
2022/04/20 00:32:34;;;;;;;16.00;8.53;;;3.60;99.90;;;;;;4996732;28;20191;-83
2022/04/20 00:35:00;;;;;;;12.40;6.87;;;3.80;99.90;;;;;;4995334;28;20637;-83
2022/04/20 00:37:26;;;;;;;14.17;8.37;;;3.60;99.90;;;;;;4995060;28;20189;-83
2022/04/20 00:39:52;;;;;;;14.87;8.40;;;3.70;99.90;;;;;;4994966;28;20184;-83
2022/04/20 00:42:22;;;;;;;14.67;7.60;;;3.80;99.90;;;;;;4996305;28;20217;-83
2022/04/20 00:44:48;;;;;;;13.80;7.97;;;3.80;99.90;;;;;;4996425;28;20181;-83
2022/04/20 00:47:16;;;;;;;11.60;7.10;;;3.80;99.90;;;;;;4996389;28;20189;-83
2022/04/20 00:49:43;;;;;;;11.70;6.63;;;3.80;99.90;;;;;;4996523;28;20680;-83
2022/04/20 00:52:09;;;;;;;11.50;5.87;;;;;;;;;;4996381;28;20183;-83
2022/04/20 00:54:35;;;;;;;7.60;5.13;;;3.80;99.90;;;;;;4995895;28;20181;-83
2022/04/20 00:57:01;;;;;;;10.43;4.97;;;3.80;99.90;;;;;;5001150;28;20186;-83
2022/04/20 00:59:29;;;;;;;14.73;5.27;;;4.10;99.90;;;;;;4995770;28;20273;-83
2022/04/20 01:01:55;;;;;;;8.97;5.47;;;3.90;99.90;;;;;;4995869;28;20237;-83
2022/04/20 01:04:21;;;;;;;5.37;4.00;;;3.80;99.90;;;;;;4996003;28;20216;-83
2022/04/20 01:06:49;;;;;;;9.67;4.80;;;3.90;99.90;;;;;;4996258;28;20559;-83
2022/04/20 01:09:15;;;;;;;7.23;4.83;;;;;;;;;;4995828;28;20180;-83
2022/04/20 01:11:41;;;;;;;6.10;3.47;;;;;;;;;;4995984;28;20178;-83
2022/04/20 01:14:08;;;;;;;7.50;4.20;;;;;;;;;;4995834;28;20212;-83
2022/04/20 01:16:33;;;;;;;10.23;4.53;;;3.80;99.90;;;;;;4995683;28;20252;-83
2022/04/20 01:19:01;;;;;;;25.20;4.07;;;4.00;99.90;;;;;;4995558;28;20614;-83
2022/04/20 01:21:27;;;;;;;9.07;4.30;;;3.90;99.90;;;;;;4994317;28;20233;-83
2022/04/20 01:23:53;;;;;;;6.40;3.57;;;4.00;99.90;;;;;;4996085;28;20225;-83
2022/04/20 01:26:18;;;;;;;7.37;3.57;;;3.90;99.90;;;;;;4994400;28;20184;-83
2022/04/20 01:28:45;;;;;;;5.23;3.37;;;4.20;99.90;;;;;;4995699;28;20186;-83
2022/04/20 01:31:16;;;;;;;4.73;3.90;;;3.90;99.90;;;;;;4995642;28;20184;-83
2022/04/20 01:33:42;;;;;;;2.10;2.00;;;4.00;99.90;;;;;;4995244;28;20174;-83
2022/04/20 01:36:09;;;;;;;6.33;2.83;;;3.90;99.90;;;;;;4994080;28;20222;-84
2022/04/20 01:38:38;;;;;;;4.57;3.33;;;3.60;99.90;;;;;;4995214;28;20281;-83
2022/04/20 01:41:04;;;;;;;4.90;3.03;;;3.50;99.90;;;;;;4994026;28;20225;-83
2022/04/20 01:43:30;;;;;;;2.37;1.67;;;4.00;99.90;;;;;;4995215;28;20659;-83
2022/04/20 01:45:55;;;;;;;3.47;2.03;;;3.90;99.90;;;;;;4995612;28;20186;-83
2022/04/20 01:48:21;;;;;;;2.67;2.47;;;3.70;99.90;;;;;;4994629;28;20246;-83
2022/04/20 01:53:32;;;;;;;2.50;1.97;;;;;;;;;;4994892;28;20500;-83
2022/04/20 01:56:00;;;;;;;2.07;1.90;;;3.70;99.90;;;;;;4994997;28;20591;-83
2022/04/20 01:58:26;;;;;;;2.37;2.13;;;3.50;99.90;;;;;;4994982;28;20172;-83
2022/04/20 02:00:52;;;;;;;2.97;2.73;;;;;;;;;;4976938;28;20189;-82
2022/04/20 02:03:18;;;;;;;3.17;2.80;;;3.80;99.90;;;;;;4993678;28;20529;-84
2022/04/20 02:05:44;;;;;;;2.67;2.07;;;3.30;99.90;;;;;;4994966;28;20184;-83
2022/04/20 02:08:10;;;;;;;2.70;2.43;;;3.80;99.90;;;;;;4993843;28;20236;-83
2022/04/20 02:10:35;;;;;;;2.60;2.40;;;3.60;99.90;;;;;;4994400;28;20177;-83
2022/04/20 02:13:01;;;;;;;2.50;2.30;;;4.30;99.90;;;;;;4993397;28;20635;-83
2022/04/20 02:15:28;;;;;;;3.23;2.73;;;3.50;99.90;;;;;;4994724;28;20178;-83
2022/04/20 02:17:53;;;;;;;5.10;2.13;;;3.50;99.90;;;;;;4994815;28;20179;-83
2022/04/20 02:20:19;;;;;;;2.63;2.43;;;3.50;99.90;;;;;;4994713;28;20626;-83
2022/04/20 02:22:45;;;;;;;1.70;1.50;;;;;;;;;;4994349;28;20682;-83
2022/04/20 02:25:11;;;;;;;4.13;2.77;;;3.50;99.90;;;;;;4994983;28;20181;-83
2022/04/20 02:27:37;;;;;;;3.70;2.93;;;4.00;99.90;;;;;;4994670;28;20205;-83
2022/04/20 02:30:04;;;;;;;8.00;1.90;;;3.60;99.90;;;;;;4994648;28;20639;-83
2022/04/20 02:32:30;;;;;;;9.80;5.70;;;3.40;99.90;;;;;;4994425;28;20178;-83
2022/04/20 02:34:55;;;;;;;2.53;2.13;;;3.40;99.90;;;;;;4994448;28;20228;-83
2022/04/20 02:37:21;;;;;;;4.53;3.47;;;3.40;99.90;;;;;;4994515;28;20194;-83
2022/04/20 02:39:48;;;;;;;5.03;2.83;;;3.40;99.90;;;;;;4976990;28;20205;-83
2022/04/20 02:42:13;;;;;;;4.17;3.53;;;3.40;99.90;;;;;;4994079;28;20700;-83
2022/04/20 02:44:40;;;;;;;4.33;2.50;;;4.60;99.90;;;;;;4993899;28;20182;-83
2022/04/20 02:47:07;;;;;;;2.93;2.10;;;3.40;99.90;;;;;;4993094;28;20272;-83
2022/04/20 02:49:32;;;;;;;3.30;3.00;;;3.40;99.90;;;;;;4994249;28;20180;-83
2022/04/20 02:51:58;;;;;;;4.40;3.60;;;3.50;99.90;;;;;;4992981;28;20189;-83
2022/04/20 02:54:24;;;;;;;5.57;3.03;;;;;;;;;;4992795;28;20228;-86
2022/04/20 02:56:50;;;;;;;3.90;3.07;;;3.30;99.90;;;;;;4992871;28;20215;-83
2022/04/20 02:59:16;;;;;;;4.80;3.03;;;;;;;;;;4994215;28;20211;-83
2022/04/20 03:01:42;;;;;;;4.10;3.17;;;3.10;99.90;;;;;;4993810;28;20628;-83
2022/04/20 03:04:08;;;;;;;5.43;2.83;;;3.50;99.90;;;;;;4994071;28;20228;-83
2022/04/20 03:06:33;;;;;;;4.27;3.80;;;3.40;99.90;;;;;;4992559;28;20215;-83
2022/04/20 03:08:59;;;;;;;6.80;4.50;;;3.50;99.90;;;;;;4993010;28;20183;-83
2022/04/20 03:11:25;;;;;;;5.43;3.60;;;3.20;99.90;;;;;;4994627;28;20200;-82
2022/04/20 03:13:50;;;;;;;3.53;2.77;;;3.40;99.90;;;;;;4996657;28;20289;-83
2022/04/20 03:16:16;;;;;;;3.23;2.93;;;3.40;99.90;;;;;;4997018;28;20181;-82
2022/04/20 03:18:42;;;;;;;3.17;2.10;;;3.50;99.90;;;;;;4998391;28;20196;-82
2022/04/20 03:21:08;;;;;;;5.50;3.83;;;3.50;99.90;;;;;;4996930;28;20212;-82
2022/04/20 03:23:33;;;;;;;4.73;3.67;;;3.50;99.90;;;;;;4996705;28;20576;-83
2022/04/20 03:26:00;;;;;;;4.57;3.93;;;3.30;99.90;;;;;;4998244;28;20247;-82
2022/04/20 03:28:26;;;;;;;4.03;3.63;;;;;;;;;;4997653;28;20182;-83
2022/04/20 03:30:51;;;;;;;5.00;3.00;;;3.30;99.90;;;;;;4996311;28;20261;-83
2022/04/20 03:33:17;;;;;;;3.67;2.97;;;3.20;99.90;;;;;;4996367;28;20614;-83
2022/04/20 03:35:44;;;;;;;6.10;3.77;;;;;;;;;;4997075;28;20191;-83
2022/04/20 03:38:10;;;;;;;2.90;2.70;;;3.20;99.90;;;;;;4997334;28;20261;-84
2022/04/20 03:40:36;;;;;;;2.67;1.93;;;3.40;99.90;;;;;;4996944;28;20212;-82
2022/04/20 03:43:02;;;;;;;2.30;2.10;;;3.50;99.90;;;;;;4997159;28;20208;-83
2022/04/20 03:45:28;;;;;;;2.37;2.17;;;3.20;99.90;;;;;;4995886;28;20654;-83
2022/04/20 03:47:54;;;;;;;5.43;3.10;;;3.40;99.90;;;;;;4997184;28;20196;-83
2022/04/20 03:50:19;;;;;;;3.07;2.80;;;3.20;99.90;;;;;;4996698;28;20586;-83
2022/04/20 03:52:45;;;;;;;2.93;2.17;;;;;;;;;;4997290;28;20182;-83
2022/04/20 03:55:11;;;;;;;5.93;3.67;;;3.20;99.90;;;;;;4979972;28;20194;-83
2022/04/20 03:57:37;;;;;;;2.73;1.90;;;3.10;99.90;;;;;;4996912;28;20527;-83
2022/04/20 04:00:04;;;;;;;3.33;2.77;;;4.40;99.90;;;;;;4999164;28;20213;-84
2022/04/20 04:02:30;;;;;;;7.07;1.63;;;3.20;99.90;;;;;;5000697;28;20237;-85
2022/04/20 04:04:56;;;;;;;6.07;3.37;;;3.40;99.90;;;;;;5001927;28;20181;-82
2022/04/20 04:07:22;;;;;;;4.33;2.87;;;3.20;99.90;;;;;;5001374;28;20173;-83
2022/04/20 04:09:48;;;;;;;6.40;4.70;;;3.60;99.90;;;;;;5009698;28;20182;-83
2022/04/20 04:12:14;;;;;;;3.63;3.00;;;3.50;99.90;;;;;;5021298;28;20186;-83
2022/04/20 04:14:40;;;;;;;6.73;3.27;;;3.40;99.90;;;;;;5021757;28;20179;-82
2022/04/20 04:17:06;;;;;;;2.47;2.00;;;3.30;99.90;;;;;;5021636;28;20187;-83
2022/04/20 04:19:35;;;;;;;3.07;2.77;;;3.40;99.90;;;;;;5018356;28;20178;-87
2022/04/20 04:22:02;;;;;;;6.17;3.77;;;3.50;99.90;;;;;;5010817;28;20224;-83
2022/04/20 04:24:34;;;;;;;2.37;2.23;;;;;;;;;;5013665;28;20196;-85
2022/04/20 04:27:01;;;;;;;3.20;2.67;;;3.70;99.90;;;;;;5020270;28;20222;-84
2022/04/20 04:29:27;;;;;;;2.80;2.57;;;3.50;99.90;;;;;;5018714;28;20181;-86
2022/04/20 04:31:53;;;;;;;6.63;4.70;;;;;;;;;;5017934;28;20182;-83
2022/04/20 04:34:19;;;;;;;2.80;2.30;;;3.60;99.90;;;;;;5011757;28;20201;-83
2022/04/20 04:36:45;;;;;;;2.57;2.03;;;3.90;99.90;;;;;;5014239;28;20253;-83
2022/04/20 04:39:10;;;;;;;4.70;3.03;;;3.60;99.90;;;;;;5016829;28;20186;-85
2022/04/20 04:41:36;;;;;;;7.47;4.47;;;3.60;99.90;;;;;;5014388;28;20247;-84
2022/04/20 04:44:02;;;;;;;7.70;3.07;;;3.50;99.90;;;;;;5015642;28;20196;-82
2022/04/20 04:54:23;;;;;;;4.77;3.63;;;;;;;;;;5676164;23;20574;-83
2022/04/20 04:56:50;;;;;;;2.63;2.17;;;;;;;;;;5008497;28;20187;-83
2022/04/20 04:59:16;;;;;;;5.37;2.70;;;;;;;;;;5023288;28;20192;-83
2022/04/20 05:01:42;;;;;;;4.27;3.07;;;4.40;99.90;;;;;;5001083;28;20684;-82
2022/04/20 05:04:08;;;;;;;3.57;3.23;;;3.90;99.90;;;;;;5010991;28;20188;-81
2022/04/20 05:06:36;;;;;;;2.20;1.90;;;;;;;;;;5013402;28;20199;-81
2022/04/20 05:09:01;;;;;;;2.27;2.17;;;4.00;99.90;;;;;;5013801;28;20221;-81
2022/04/20 05:11:27;;;;;;;3.57;3.10;;;3.90;99.90;;;;;;5013437;28;20232;-82
2022/04/20 05:13:53;;;;;;;2.80;2.53;;;3.90;99.90;;;;;;4992807;28;20196;-82
2022/04/20 05:16:19;;;;;;;3.83;2.47;;;3.80;99.90;;;;;;4992905;28;20191;-81
2022/04/20 05:18:45;;;;;;;7.20;3.57;;;4.20;99.90;;;;;;5014152;28;20280;-81
2022/04/20 05:21:10;;;;;;;4.63;2.83;;;4.30;99.90;;;;;;4996449;28;20209;-81
2022/04/20 05:23:36;;;;;;;4.10;1.93;;;3.90;99.90;;;;;;5013765;28;20644;-82
2022/04/20 05:26:02;;;;;;;3.37;2.40;;;4.40;99.90;;;;;;5013105;28;20687;-82
2022/04/20 05:28:28;;;;;;;6.00;3.80;;;4.40;99.90;;;;;;5013435;28;20802;-81
2022/04/20 05:30:54;;;;;;;4.47;3.83;;;4.20;99.90;;;;;;4979994;28;20179;-82
2022/04/20 05:33:20;;;;;;;3.73;3.20;;;;;;;;;;4994739;28;20215;-82
2022/04/20 05:35:46;;;;;;;3.90;2.27;;;4.60;99.90;;;;;;4981235;28;20188;-83
2022/04/20 05:43:48;;;;;;;6.80;3.53;;;3.90;99.90;;;;;;4975277;28;20231;-82
2022/04/20 05:46:16;;;;;;;4.47;2.47;;;4.60;99.90;;;;;;5027561;28;20266;-83
2022/04/20 05:48:42;;;;;;;3.93;3.47;;;4.30;99.90;;;;;;4994145;28;20194;-80
2022/04/20 05:51:08;;;;;;;2.50;2.03;;;4.40;99.90;;;;;;5008045;28;20196;-81
2022/04/20 05:53:34;;;;;;;6.27;4.50;;;;;;;;;;4994262;28;20266;-82
2022/04/20 05:56:00;;;;;;;3.40;2.20;;;4.40;99.90;;;;;;5013626;28;20217;-81
2022/04/20 05:58:25;;;;;;;2.83;2.50;;;4.10;99.90;;;;;;5008585;28;20211;-81
2022/04/20 06:00:51;;;;;;;6.90;3.23;;;4.40;99.90;;;;;;4995343;28;20254;-82
2022/04/20 06:03:17;;;;;;;3.30;2.80;;;4.00;99.90;;;;;;5011899;28;20259;-82
2022/04/20 06:05:43;;;;;;;2.70;2.50;;;4.50;99.90;;;;;;4981946;28;20254;-83
2022/04/20 06:08:08;;;;;;;3.27;2.97;;;4.30;99.90;;;;;;4999186;28;20654;-82
2022/04/20 06:10:34;;;;;;;5.23;3.47;;;4.10;99.90;;;;;;4981713;28;20587;-82
2022/04/20 06:13:00;;;;;;;2.97;2.30;;;4.30;99.90;;;;;;4977029;28;20192;-81
2022/04/20 06:15:26;;;;;;;2.00;1.80;;;4.50;99.90;;;;;;5004072;28;20192;-83
2022/04/20 06:17:51;;;;;;;3.70;3.27;;;4.40;99.90;;;;;;4954538;28;20177;-83
2022/04/20 06:20:17;;;;;;;8.10;4.30;;;4.20;99.90;;;;;;4991494;28;20189;-80
2022/04/20 06:22:43;;;;;;;10.10;4.17;;;4.40;99.90;;;;;;5022153;28;20201;-90
2022/04/20 06:25:09;;;;;;;3.63;2.80;;;;;;;;;;5017079;28;20178;-86
2022/04/20 06:27:36;;;;;;;3.17;2.37;;;4.40;99.90;;;;;;5000066;28;20214;-90
2022/04/20 06:30:03;;;;;;;5.50;3.13;;;;;;;;;;5011589;28;20181;-88
2022/04/20 06:32:28;;;;;;;3.87;2.53;;;4.50;99.90;;;;;;5020901;28;20200;-87
2022/04/20 06:34:57;;;;;;;6.53;4.23;;;4.80;99.90;;;;;;4970739;28;20196;-82
2022/04/20 06:37:23;;;;;;;6.13;4.57;;;5.30;99.90;;;;;;4987458;28;20200;-84
2022/04/20 06:39:49;;;;;;;2.23;2.03;;;4.50;99.90;;;;;;5013592;28;20201;-82
2022/04/20 06:42:16;;;;;;;8.30;6.20;;;4.70;99.90;;;;;;5001756;28;20282;-82
2022/04/20 06:44:42;;;;;;;6.20;3.97;;;;;;;;;;5024745;28;20193;-82
2022/04/20 06:47:08;;;;;;;6.67;4.73;;;;;;;;;;5007622;28;20185;-82
2022/04/20 06:49:34;;;;;;;7.27;2.83;;;5.00;99.90;;;;;;4991946;28;20199;-82
2022/04/20 07:00:16;;;;;;;3.30;2.83;;;4.90;99.90;;;;;;5019950;28;20192;-83
2022/04/20 07:02:42;;;;;;;5.83;3.30;;;4.60;99.90;;;;;;5012365;28;20756;-84
2022/04/20 07:05:09;;;;;;;6.90;3.90;;;4.60;99.90;;;;;;5012885;28;20272;-83
2022/04/20 07:07:35;;;;;;;4.60;3.10;;;4.80;99.90;;;;;;5013502;28;20187;-81
2022/04/20 07:10:01;;;;;;;2.40;2.03;;;4.80;99.90;;;;;;5015166;28;20622;-83
2022/04/20 07:12:27;;;;;;;7.57;4.57;;;5.00;99.90;;;;;;4967297;28;20189;-84
2022/04/20 07:14:52;;;;;;;3.57;3.13;;;4.80;99.90;;;;;;4996176;28;20755;-82
2022/04/20 07:17:18;;;;;;;6.13;2.90;;;4.80;99.90;;;;;;5029359;28;20551;-82
2022/04/20 07:19:44;;;;;;;4.93;2.83;;;4.60;99.90;;;;;;4995908;28;20192;-82
2022/04/20 07:22:09;;;;;;;3.70;2.90;;;4.70;99.90;;;;;;4978971;28;20244;-83
2022/04/20 07:24:35;;;;;;;5.33;2.50;;;4.80;99.90;;;;;;4992031;28;20201;-82
2022/04/20 07:27:01;;;;;;;4.07;2.57;;;4.50;99.90;;;;;;4960196;28;20189;-83
2022/04/20 07:29:26;;;;;;;4.43;3.30;;;4.90;99.90;;;;;;4990654;28;20207;-83
2022/04/20 07:31:52;;;;;;;4.33;3.97;;;4.60;99.90;;;;;;5001303;28;20186;-82
2022/04/20 07:34:18;;;;;;;6.33;3.97;;;4.80;99.90;;;;;;4967076;28;20699;-82
2022/04/20 07:36:43;;;;;;;10.33;5.97;;;4.80;99.90;;;;;;4982851;28;20188;-81
2022/04/20 07:39:09;;;;;;;5.87;3.97;;;4.90;99.90;;;;;;4995400;28;20181;-81
2022/04/20 07:41:35;;;;;;;2.57;2.27;;;;;;;;;;5013321;28;20266;-81
2022/04/20 07:44:00;;;;;;;3.23;2.30;;;4.80;99.90;;;;;;5014208;28;20521;-81
2022/04/20 07:46:26;;;;;;;5.20;2.97;;;5.10;99.90;;;;;;4997794;28;20184;-81
2022/04/20 07:48:52;;;;;;;4.30;3.53;;;4.90;99.90;;;;;;4996969;28;20239;-82
2022/04/20 07:51:18;;;;;;;4.43;3.80;;;4.90;99.90;;;;;;4996938;28;20193;-82
2022/04/20 07:53:44;;;;;;;7.03;4.03;;;5.10;99.90;;;;;;5013785;28;20264;-82
2022/04/20 07:56:10;;;;;;;4.53;3.60;;;4.90;99.90;;;;;;4997466;28;20192;-82
2022/04/20 07:58:36;;;;;;;3.03;2.83;;;5.10;99.90;;;;;;5015261;28;20181;-81
2022/04/20 08:01:02;;;;;;;5.63;3.97;;;5.00;99.90;;;;;;4985200;28;20212;-81
2022/04/20 08:03:27;;;;;;;5.03;3.13;;;5.00;99.90;;;;;;5017911;28;20189;-81
2022/04/20 08:05:55;;;;;;;4.87;3.57;;;5.00;99.90;;;;;;5000343;28;20185;-81
2022/04/20 08:08:23;;;;;;;6.87;4.40;;;5.00;99.90;;;;;;5017522;28;20564;-82
2022/04/20 08:10:50;;;;;;;3.03;2.73;;;5.10;99.90;;;;;;5018466;28;20231;-82
2022/04/20 08:16:00;;;;;;;6.30;4.53;;;5.10;99.90;;;;;;5002529;28;20180;-82
2022/04/20 08:18:27;;;;;;;6.47;4.20;;;5.20;99.90;;;;;;4999406;28;20638;-81
2022/04/20 08:20:53;;;;;;;7.07;4.97;;;5.40;99.90;;;;;;5016383;28;20246;-84
2022/04/20 08:23:19;;;;;;;6.07;4.63;;;5.50;99.90;;;;;;4998912;28;20224;-83
2022/04/20 08:25:46;;;;;;;6.43;4.90;;;5.40;99.90;;;;;;5016532;28;20223;-82
2022/04/20 08:28:12;;;;;;;6.10;4.57;;;5.00;99.90;;;;;;4999162;28;20544;-83
2022/04/20 08:30:39;;;;;;;6.03;3.73;;;5.20;99.90;;;;;;5016731;28;20193;-84
2022/04/20 08:33:07;;;;;;;3.57;3.03;;;5.20;99.90;;;;;;4999979;28;20549;-82
2022/04/20 08:35:38;;;;;;;6.57;5.00;;;5.30;99.90;;;;;;4999914;28;20181;-83
2022/04/20 08:38:04;;;;;;;5.97;4.00;;;5.20;99.90;;;;;;4998904;28;20185;-83
2022/04/20 08:40:31;;;;;;;6.30;3.93;;;5.30;99.90;;;;;;5017073;28;20574;-82
2022/04/20 08:43:03;;;;;;;4.83;4.37;;;5.40;99.90;;;;;;4999420;28;20295;-82
2022/04/20 08:45:30;;;;;;;5.50;4.07;;;5.40;99.90;;;;;;4999353;28;20192;-82
2022/04/20 08:47:57;;;;;;;8.00;3.67;;;5.40;99.90;;;;;;4982866;28;20615;-82
2022/04/20 08:50:24;;;;;;;5.23;2.93;;;5.40;99.90;;;;;;4999125;28;20194;-83
2022/04/20 08:52:52;;;;;;;4.33;2.97;;;;;;;;;;4999765;28;20224;-84
2022/04/20 08:55:18;;;;;;;4.27;3.20;;;5.40;99.90;;;;;;5004389;28;20233;-83
2022/04/20 08:57:49;;;;;;;7.30;4.10;;;5.80;99.90;;;;;;5003518;28;20181;-84
2022/04/20 09:00:20;;;;;;;5.40;4.00;;;5.50;99.90;;;;;;5021616;28;20176;-84
2022/04/20 09:02:49;;;;;;;4.53;3.10;;;5.50;99.90;;;;;;5010856;28;20211;-84
2022/04/20 09:05:14;;;;;;;6.00;3.90;;;5.40;99.90;;;;;;5039927;28;20181;-83
2022/04/20 09:07:40;;;;;;;3.17;2.30;;;5.50;99.90;;;;;;5022931;28;20193;-88
2022/04/20 09:10:06;;;;;;;3.87;3.10;;;5.60;99.90;;;;;;5039015;28;20188;-83
2022/04/20 09:12:32;;;;;;;3.97;3.07;;;5.60;99.90;;;;;;5034007;28;20218;-82
2022/04/20 09:15:00;;;;;;;8.53;4.13;;;5.60;99.90;;;;;;5024538;28;20212;-82
2022/04/20 09:17:26;;;;;;;5.80;3.53;;;5.70;99.90;;;;;;4997149;28;20179;-83
2022/04/20 09:19:56;;;;;;;5.03;3.70;;;5.80;99.90;;;;;;5039660;28;20172;-84
2022/04/20 09:22:27;;;;;;;6.47;3.90;;;5.80;99.90;;;;;;5022504;28;20223;-81
2022/04/20 09:25:14;;;;;;;4.03;3.63;;;5.90;99.90;;;;;;5036834;28;20245;-81
2022/04/20 09:27:42;;;;;;;4.40;2.97;;;5.90;99.90;;;;;;5017458;28;20688;-85
2022/04/20 09:30:17;;;;;;;3.83;3.00;;;6.00;99.90;;;;;;5016750;28;20659;-83
2022/04/20 09:32:45;;;;;;;7.20;5.20;;;6.00;99.90;;;;;;5016321;28;20181;-81
2022/04/20 09:35:13;;;;;;;3.63;2.70;;;5.90;99.90;;;;;;4999789;28;20526;-82
2022/04/20 09:37:40;;;;;;;5.73;2.93;;;5.70;99.90;;;;;;5016384;28;20178;-82
2022/04/20 09:40:11;;;;;;;4.47;3.30;;;5.80;99.90;;;;;;5016413;28;20212;-83
2022/04/20 09:42:57;;;;;;;6.20;3.73;;;5.90;99.90;;;;;;5016777;28;20223;-82
2022/04/20 09:45:23;;;;;;;4.07;3.60;;;5.90;99.90;;;;;;5016163;28;20669;-82
2022/04/20 09:50:34;;;;;;;3.43;3.13;;;5.80;99.90;;;;;;5020785;28;20208;-83
2022/04/20 09:53:06;;;;;;;9.23;4.17;;;5.80;99.90;;;;;;5021328;28;20656;-83
2022/04/20 09:55:36;;;;;;;8.03;4.20;;;5.80;99.90;;;;;;4982748;28;20298;-82
2022/04/20 09:58:08;;;;;;;3.60;3.20;;;5.60;99.90;;;;;;5015384;28;20185;-83
2022/04/20 10:00:41;;;;;;;8.60;4.10;;;5.80;99.90;;;;;;4997870;28;20181;-82
2022/04/20 10:03:08;;;;;;;4.23;3.80;;;7.30;99.90;;;;;;4997027;28;20220;-82
2022/04/20 10:05:34;;;;;;;5.73;3.87;;;5.90;99.90;;;;;;5014833;28;20188;-82
2022/04/20 10:08:02;;;;;;;7.30;4.40;;;5.90;99.90;;;;;;5014629;28;20185;-83
2022/04/20 10:10:35;;;;;;;3.60;3.27;;;5.80;99.90;;;;;;5014849;28;20177;-82
2022/04/20 10:13:03;;;;;;;5.17;4.20;;;5.80;99.90;;;;;;4996838;28;20189;-83
2022/04/20 10:18:17;;;;;;;2.60;2.40;;;5.90;99.90;;;;;;5000690;28;20602;-83
2022/04/20 10:20:46;;;;;;;4.83;3.17;;;;;;;;;;5015203;28;20325;-82
2022/04/20 10:23:16;;;;;;;4.50;3.23;;;6.00;99.90;;;;;;4997525;28;20244;-83
2022/04/20 10:25:43;;;;;;;3.47;3.10;;;5.90;99.90;;;;;;5014976;28;20174;-79
2022/04/20 10:28:27;;;;;;;5.97;3.77;;;6.00;99.90;;;;;;5015222;28;20178;-81
2022/04/20 10:31:15;;;;;;;5.97;3.90;;;6.10;99.90;;;;;;5014580;28;20178;-83
2022/04/20 10:33:42;;;;;;;3.47;3.00;;;6.10;99.90;;;;;;5014711;28;20161;-82
2022/04/20 10:36:11;;;;;;;4.97;3.20;;;6.10;99.90;;;;;;5014449;28;20634;-82
2022/04/20 10:38:38;;;;;;;4.53;3.67;;;6.20;99.90;;;;;;4996808;28;20272;-82
2022/04/20 10:41:08;;;;;;;2.53;2.33;;;6.10;99.90;;;;;;5014215;28;20177;-84
2022/04/20 10:43:35;;;;;;;4.67;3.03;;;6.30;99.90;;;;;;4996713;28;20280;-82
2022/04/20 10:46:04;;;;;;;2.43;2.23;;;6.20;99.90;;;;;;4997430;28;20186;-82
2022/04/20 10:48:58;;;;;;;2.73;2.53;;;6.30;99.90;;;;;;5014508;28;20185;-84
2022/04/20 10:51:30;;;;;;;4.63;2.40;;;6.30;99.90;;;;;;5013960;28;20208;-83
2022/04/20 10:54:26;;;;;;;4.93;2.63;;;6.30;99.90;;;;;;5013838;28;20227;-82
2022/04/20 10:57:05;;;;;;;4.80;2.87;;;6.30;99.90;;;;;;5014092;28;20208;-82
2022/04/20 10:59:32;;;;;;;3.23;2.77;;;6.40;99.90;;;;;;5014882;28;20264;-82
2022/04/20 11:02:03;;;;;;;5.30;3.00;;;6.30;99.90;;;;;;5014544;28;20215;-82
2022/04/20 11:04:42;;;;;;;2.10;2.00;;;6.30;99.90;;;;;;5015517;28;20181;-81
2022/04/20 11:07:07;;;;;;;6.77;3.80;;;6.30;99.90;;;;;;5015552;28;20629;-82
2022/04/20 11:09:42;;;;;;;4.33;3.80;;;6.40;99.90;;;;;;4997926;28;20188;-81
2022/04/20 11:21:11;;;;;;;3.87;3.00;;;6.40;99.90;;;;;;5015758;28;20235;-81
2022/04/20 11:24:06;;;;;;;2.80;2.30;;;6.50;99.90;;;;;;5014073;28;20181;-81
2022/04/20 11:26:39;;;;;;;3.83;3.43;;;6.60;99.90;;;;;;5014039;28;20185;-81
2022/04/20 11:29:14;;;;;;;7.83;3.00;;;6.70;99.90;;;;;;4997083;28;20276;-82
2022/04/20 11:31:48;;;;;;;2.63;2.33;;;6.80;99.90;;;;;;5012708;28;20185;-82
2022/04/20 11:34:16;;;;;;;4.97;2.77;;;6.90;99.90;;;;;;5016282;28;20181;-81
2022/04/20 11:36:51;;;;;;;4.43;3.03;;;7.10;99.90;;;;;;5017825;28;20696;-82
2022/04/20 11:39:18;;;;;;;4.03;3.20;;;7.00;99.90;;;;;;5000510;28;20173;-81
2022/04/20 11:41:46;;;;;;;4.47;3.43;;;7.00;99.90;;;;;;5019117;28;20217;-82
2022/04/20 11:44:25;;;;;;;3.77;2.77;;;7.00;99.90;;;;;;4999827;28;20196;-82
2022/04/20 11:46:58;;;;;;;3.63;3.33;;;7.00;99.90;;;;;;4999709;28;20184;-82
2022/04/20 11:49:41;;;;;;;3.80;2.20;;;6.80;99.90;;;;;;5017173;28;20630;-83
2022/04/20 11:52:09;;;;;;;3.13;2.83;;;7.00;99.90;;;;;;4978830;28;20598;-83
2022/04/20 11:54:36;;;;;;;4.60;3.00;;;7.10;99.90;;;;;;4999734;28;20316;-83
2022/04/20 11:57:03;;;;;;;3.97;3.17;;;7.00;99.90;;;;;;4984702;28;20213;-81
2022/04/20 11:59:29;;;;;;;7.27;4.20;;;7.10;99.90;;;;;;5000026;28;20200;-81
2022/04/20 12:01:56;;;;;;;5.83;3.70;;;7.00;99.90;;;;;;4999249;28;20666;-82
2022/04/20 12:04:24;;;;;;;4.20;2.60;;;7.00;99.90;;;;;;5017132;28;20190;-82
2022/04/20 12:06:54;;;;;;;4.57;2.87;;;7.10;99.90;;;;;;5017710;28;20631;-82
2022/04/20 12:09:26;;;;;;;6.60;3.50;;;7.20;99.90;;;;;;5017491;28;20173;-83
2022/04/20 12:12:00;;;;;;;4.03;2.70;;;7.30;99.90;;;;;;4999620;28;20208;-81
2022/04/20 12:14:32;;;;;;;6.07;3.90;;;7.50;99.90;;;;;;5017432;28;20166;-82
2022/04/20 12:17:05;;;;;;;3.03;2.70;;;7.50;99.90;;;;;;5000477;28;20239;-80
2022/04/20 12:19:31;;;;;;;6.30;3.33;;;7.40;99.90;;;;;;5017775;28;20195;-81
2022/04/20 12:22:08;;;;;;;4.47;2.97;;;7.40;99.90;;;;;;4983599;28;20219;-82
2022/04/20 12:24:35;;;;;;;7.23;3.73;;;7.30;99.90;;;;;;5000790;28;20181;-80
2022/04/20 12:27:01;;;;;;;7.10;4.93;;;7.20;99.90;;;;;;4995150;28;20256;-82
2022/04/20 12:29:34;;;;;;;6.37;4.00;;;7.20;99.90;;;;;;4996660;28;20181;-80
2022/04/20 12:32:00;;;;;;;1.83;1.67;;;7.20;99.90;;;;;;4995702;28;20190;-84
2022/04/20 12:34:30;;;;;;;8.17;3.27;;;7.10;99.90;;;;;;4995892;28;20182;-82
2022/04/20 12:37:03;;;;;;;6.20;3.60;;;7.30;99.90;;;;;;4996414;28;20178;-81
2022/04/20 12:39:39;;;;;;;4.73;3.13;;;7.20;99.90;;;;;;4995848;28;20200;-82
2022/04/20 12:42:05;;;;;;;6.53;3.20;;;7.30;99.90;;;;;;5012926;28;20239;-83
2022/04/20 12:44:39;;;;;;;4.57;3.23;;;7.30;99.90;;;;;;4998688;28;20192;-81
2022/04/20 12:47:08;;;;;;;5.80;3.30;;;7.30;99.90;;;;;;5008858;28;20189;-80
2022/04/20 12:49:34;;;;;;;2.70;2.50;;;7.30;99.90;;;;;;4998942;28;20189;-81
2022/04/20 12:52:14;;;;;;;5.87;3.80;;;7.30;99.90;;;;;;5015925;28;20185;-82
2022/04/20 12:54:51;;;;;;;2.90;2.60;;;7.20;99.90;;;;;;4995263;28;20253;-84
2022/04/20 13:03:02;;;;;;;5.23;3.00;;;7.10;99.90;;;;;;4996101;28;20224;-80
2022/04/20 13:05:28;;;;;;;5.10;3.87;;;7.10;99.90;;;;;;4996149;28;20209;-81
2022/04/20 13:07:54;;;;;;;3.67;2.73;;;7.00;99.90;;;;;;5015663;28;20208;-82
2022/04/20 13:10:22;;;;;;;8.80;3.77;;;7.00;99.90;;;;;;5027075;28;20263;-81
2022/04/20 13:12:51;;;;;;;4.77;3.00;;;7.00;99.90;;;;;;5015610;28;20211;-81
2022/04/20 13:15:18;;;;;;;4.47;3.10;;;7.00;99.90;;;;;;5015761;28;20169;-81
2022/04/20 13:17:44;;;;;;;8.33;4.37;;;7.00;99.90;;;;;;4981857;28;20192;-81
2022/04/20 13:20:10;;;;;;;4.83;3.27;;;7.10;99.90;;;;;;5017409;28;20537;-81
2022/04/20 13:22:36;;;;;;;5.47;3.30;;;6.80;99.90;;;;;;5013908;28;20665;-80
2022/04/20 13:27:55;;;;;;;4.87;2.73;;;;;;;;;;5014604;28;20257;-80
2022/04/20 13:30:36;;;;;;;7.37;4.13;;;6.80;99.90;;;;;;5014139;28;20173;-82
2022/04/20 13:33:07;;;;;;;2.57;2.07;;;6.80;99.90;;;;;;5014801;28;20170;-86
2022/04/20 13:35:34;;;;;;;6.47;3.87;;;6.80;99.90;;;;;;4997376;28;20618;-81
2022/04/20 13:38:00;;;;;;;6.07;4.20;;;6.90;99.90;;;;;;5018853;28;20177;-81
2022/04/20 13:40:26;;;;;;;4.90;3.53;;;6.90;99.90;;;;;;5020985;28;20176;-80
2022/04/20 13:42:54;;;;;;;6.97;4.17;;;7.00;99.90;;;;;;5000196;28;20248;-81
2022/04/20 13:45:20;;;;;;;5.37;4.13;;;7.00;99.90;;;;;;5000375;28;20181;-80
2022/04/20 13:47:45;;;;;;;4.63;3.17;;;7.00;99.90;;;;;;4978521;28;20190;-81
2022/04/20 13:50:11;;;;;;;4.60;3.23;;;;;;;;;;4993419;28;20534;-80
2022/04/20 13:52:38;;;;;;;3.20;2.53;;;7.10;99.90;;;;;;4997276;28;20647;-80
2022/04/20 13:55:05;;;;;;;5.97;4.17;;;6.90;99.90;;;;;;5014560;28;20325;-80
2022/04/20 13:57:32;;;;;;;4.83;3.87;;;6.90;99.90;;;;;;5014461;28;20205;-83